Webcam

2024/05/18 18:50 EBBR 181850Z 31003KT 9999 FEW022CB 16/13 Q1011 TEMPO 2500 SHRA TSRA

Webcam

--- Refresh now ---